sensor_id;sensor_type;location;lat;lon;timestamp;P1;durP1;ratioP1;P2;durP2;ratioP2
505;SDS011;551;48.524;9.056;2022-10-18T00:00:38;13.97;;;5.70;;
505;SDS011;551;48.524;9.056;2022-10-18T00:03:04;8.00;;;6.47;;
505;SDS011;551;48.524;9.056;2022-10-18T00:05:30;7.30;;;6.30;;
505;SDS011;551;48.524;9.056;2022-10-18T00:07:56;10.00;;;6.03;;
505;SDS011;551;48.524;9.056;2022-10-18T00:10:21;7.67;;;5.90;;
505;SDS011;551;48.524;9.056;2022-10-18T00:12:48;9.33;;;6.00;;
505;SDS011;551;48.524;9.056;2022-10-18T00:15:14;7.70;;;5.40;;
505;SDS011;551;48.524;9.056;2022-10-18T00:17:40;10.47;;;5.40;;
505;SDS011;551;48.524;9.056;2022-10-18T00:20:06;14.90;;;5.20;;
505;SDS011;551;48.524;9.056;2022-10-18T00:22:36;4.90;;;4.40;;
505;SDS011;551;48.524;9.056;2022-10-18T00:25:02;6.67;;;4.50;;
505;SDS011;551;48.524;9.056;2022-10-18T00:27:30;11.00;;;5.57;;
505;SDS011;551;48.524;9.056;2022-10-18T00:29:56;5.57;;;4.97;;
505;SDS011;551;48.524;9.056;2022-10-18T00:32:22;5.57;;;4.43;;
505;SDS011;551;48.524;9.056;2022-10-18T00:34:47;10.93;;;5.10;;
505;SDS011;551;48.524;9.056;2022-10-18T00:37:13;10.67;;;4.80;;
505;SDS011;551;48.524;9.056;2022-10-18T00:39:39;6.60;;;5.20;;
505;SDS011;551;48.524;9.056;2022-10-18T00:42:05;6.00;;;4.63;;
505;SDS011;551;48.524;9.056;2022-10-18T00:47:01;6.80;;;5.50;;
505;SDS011;551;48.524;9.056;2022-10-18T00:49:53;10.67;;;5.30;;
505;SDS011;551;48.524;9.056;2022-10-18T00:52:26;8.07;;;5.83;;
505;SDS011;551;48.524;9.056;2022-10-18T00:55:00;5.30;;;4.80;;
505;SDS011;551;48.524;9.056;2022-10-18T00:57:26;8.57;;;5.20;;
505;SDS011;551;48.524;9.056;2022-10-18T00:59:52;10.33;;;4.70;;
505;SDS011;551;48.524;9.056;2022-10-18T01:02:18;5.87;;;4.47;;
505;SDS011;551;48.524;9.056;2022-10-18T01:04:44;6.13;;;4.60;;
505;SDS011;551;48.524;9.056;2022-10-18T01:09:58;6.70;;;4.53;;
505;SDS011;551;48.524;9.056;2022-10-18T01:12:46;8.27;;;5.10;;
505;SDS011;551;48.524;9.056;2022-10-18T01:15:37;5.93;;;4.47;;
505;SDS011;551;48.524;9.056;2022-10-18T01:18:18;7.93;;;4.87;;
505;SDS011;551;48.524;9.056;2022-10-18T01:23:56;10.90;;;5.40;;
505;SDS011;551;48.524;9.056;2022-10-18T01:27:48;7.30;;;5.00;;
505;SDS011;551;48.524;9.056;2022-10-18T01:29:56;7.60;;;4.57;;
505;SDS011;551;48.524;9.056;2022-10-18T01:32:43;8.97;;;4.63;;
505;SDS011;551;48.524;9.056;2022-10-18T01:35:13;9.23;;;4.63;;
505;SDS011;551;48.524;9.056;2022-10-18T01:37:42;8.73;;;4.73;;
505;SDS011;551;48.524;9.056;2022-10-18T01:40:11;8.43;;;5.13;;
505;SDS011;551;48.524;9.056;2022-10-18T01:42:40;7.63;;;4.73;;
505;SDS011;551;48.524;9.056;2022-10-18T01:45:09;12.63;;;5.80;;
505;SDS011;551;48.524;9.056;2022-10-18T01:47:36;8.13;;;4.80;;
505;SDS011;551;48.524;9.056;2022-10-18T01:50:04;13.43;;;5.57;;
505;SDS011;551;48.524;9.056;2022-10-18T01:52:30;14.47;;;5.63;;
505;SDS011;551;48.524;9.056;2022-10-18T01:54:56;14.07;;;6.43;;
505;SDS011;551;48.524;9.056;2022-10-18T01:57:37;5.63;;;5.03;;
505;SDS011;551;48.524;9.056;2022-10-18T02:00:15;4.90;;;4.40;;
505;SDS011;551;48.524;9.056;2022-10-18T02:02:51;6.17;;;5.00;;
505;SDS011;551;48.524;9.056;2022-10-18T02:08:37;9.00;;;5.57;;
505;SDS011;551;48.524;9.056;2022-10-18T02:11:12;10.43;;;5.57;;
505;SDS011;551;48.524;9.056;2022-10-18T02:13:52;7.50;;;5.10;;
505;SDS011;551;48.524;9.056;2022-10-18T02:16:37;5.53;;;4.80;;
505;SDS011;551;48.524;9.056;2022-10-18T02:19:09;7.63;;;5.40;;
505;SDS011;551;48.524;9.056;2022-10-18T02:21:39;12.00;;;5.20;;
505;SDS011;551;48.524;9.056;2022-10-18T02:24:07;13.97;;;6.17;;
505;SDS011;551;48.524;9.056;2022-10-18T02:26:35;10.03;;;5.30;;
505;SDS011;551;48.524;9.056;2022-10-18T02:29:01;6.50;;;5.10;;
505;SDS011;551;48.524;9.056;2022-10-18T02:31:30;5.13;;;4.60;;
505;SDS011;551;48.524;9.056;2022-10-18T02:34:20;7.70;;;5.53;;
505;SDS011;551;48.524;9.056;2022-10-18T02:36:50;8.67;;;5.67;;
505;SDS011;551;48.524;9.056;2022-10-18T02:39:18;7.33;;;5.33;;
505;SDS011;551;48.524;9.056;2022-10-18T02:41:47;5.70;;;4.93;;
505;SDS011;551;48.524;9.056;2022-10-18T02:44:13;10.63;;;6.50;;
505;SDS011;551;48.524;9.056;2022-10-18T02:46:39;9.90;;;6.27;;
505;SDS011;551;48.524;9.056;2022-10-18T02:49:05;10.73;;;6.00;;
505;SDS011;551;48.524;9.056;2022-10-18T02:51:30;10.37;;;5.70;;
505;SDS011;551;48.524;9.056;2022-10-18T02:53:56;7.03;;;5.20;;
505;SDS011;551;48.524;9.056;2022-10-18T02:56:21;5.20;;;4.70;;
505;SDS011;551;48.524;9.056;2022-10-18T02:58:47;11.77;;;5.23;;
505;SDS011;551;48.524;9.056;2022-10-18T03:01:13;6.27;;;4.40;;
505;SDS011;551;48.524;9.056;2022-10-18T03:03:38;11.87;;;5.43;;
505;SDS011;551;48.524;9.056;2022-10-18T03:06:04;6.40;;;5.20;;
505;SDS011;551;48.524;9.056;2022-10-18T03:08:29;7.50;;;4.80;;
505;SDS011;551;48.524;9.056;2022-10-18T03:10:55;7.67;;;4.53;;
505;SDS011;551;48.524;9.056;2022-10-18T03:13:20;7.87;;;4.57;;
505;SDS011;551;48.524;9.056;2022-10-18T03:15:46;5.30;;;4.87;;
505;SDS011;551;48.524;9.056;2022-10-18T03:18:12;8.00;;;5.20;;
505;SDS011;551;48.524;9.056;2022-10-18T03:20:39;7.00;;;4.60;;
505;SDS011;551;48.524;9.056;2022-10-18T03:23:05;6.20;;;4.30;;
505;SDS011;551;48.524;9.056;2022-10-18T03:25:31;6.67;;;5.13;;
505;SDS011;551;48.524;9.056;2022-10-18T03:27:57;11.57;;;5.40;;
505;SDS011;551;48.524;9.056;2022-10-18T03:30:22;7.20;;;5.00;;
505;SDS011;551;48.524;9.056;2022-10-18T03:32:48;11.30;;;5.70;;
505;SDS011;551;48.524;9.056;2022-10-18T03:35:13;5.23;;;4.73;;
505;SDS011;551;48.524;9.056;2022-10-18T03:37:39;5.07;;;4.47;;
505;SDS011;551;48.524;9.056;2022-10-18T03:40:05;6.80;;;4.53;;
505;SDS011;551;48.524;9.056;2022-10-18T03:42:31;5.43;;;3.73;;
505;SDS011;551;48.524;9.056;2022-10-18T03:44:56;7.77;;;5.10;;
505;SDS011;551;48.524;9.056;2022-10-18T03:47:22;9.33;;;4.50;;
505;SDS011;551;48.524;9.056;2022-10-18T03:49:48;10.90;;;4.70;;
505;SDS011;551;48.524;9.056;2022-10-18T03:52:13;8.80;;;5.00;;
505;SDS011;551;48.524;9.056;2022-10-18T03:54:39;10.80;;;4.57;;
505;SDS011;551;48.524;9.056;2022-10-18T03:57:04;6.37;;;4.60;;
505;SDS011;551;48.524;9.056;2022-10-18T03:59:30;6.50;;;4.93;;
505;SDS011;551;48.524;9.056;2022-10-18T04:01:55;9.87;;;4.30;;
505;SDS011;551;48.524;9.056;2022-10-18T04:04:21;5.03;;;4.53;;
505;SDS011;551;48.524;9.056;2022-10-18T04:06:46;9.20;;;5.63;;
505;SDS011;551;48.524;9.056;2022-10-18T04:09:12;9.47;;;4.83;;
505;SDS011;551;48.524;9.056;2022-10-18T04:11:37;6.37;;;4.50;;
505;SDS011;551;48.524;9.056;2022-10-18T04:14:03;7.57;;;4.90;;
505;SDS011;551;48.524;9.056;2022-10-18T04:16:28;6.93;;;4.20;;
505;SDS011;551;48.524;9.056;2022-10-18T04:18:54;6.50;;;4.00;;
505;SDS011;551;48.524;9.056;2022-10-18T04:21:19;10.83;;;5.17;;
505;SDS011;551;48.524;9.056;2022-10-18T04:23:48;7.63;;;5.50;;
505;SDS011;551;48.524;9.056;2022-10-18T04:26:15;8.20;;;5.60;;
505;SDS011;551;48.524;9.056;2022-10-18T04:28:41;7.73;;;5.33;;
505;SDS011;551;48.524;9.056;2022-10-18T04:31:08;7.60;;;5.40;;
505;SDS011;551;48.524;9.056;2022-10-18T04:33:34;7.73;;;6.40;;
505;SDS011;551;48.524;9.056;2022-10-18T04:35:59;10.60;;;5.63;;
505;SDS011;551;48.524;9.056;2022-10-18T04:38:25;8.50;;;6.30;;
505;SDS011;551;48.524;9.056;2022-10-18T04:40:51;13.30;;;6.67;;
505;SDS011;551;48.524;9.056;2022-10-18T04:43:16;8.77;;;6.40;;
505;SDS011;551;48.524;9.056;2022-10-18T04:45:43;10.87;;;6.57;;
505;SDS011;551;48.524;9.056;2022-10-18T04:48:09;10.63;;;7.10;;
505;SDS011;551;48.524;9.056;2022-10-18T04:50:35;10.73;;;6.30;;
505;SDS011;551;48.524;9.056;2022-10-18T04:53:00;10.50;;;8.53;;
505;SDS011;551;48.524;9.056;2022-10-18T04:55:26;11.27;;;9.60;;
505;SDS011;551;48.524;9.056;2022-10-18T04:57:52;12.60;;;8.67;;
505;SDS011;551;48.524;9.056;2022-10-18T05:00:17;13.23;;;8.67;;
505;SDS011;551;48.524;9.056;2022-10-18T05:02:43;15.80;;;8.87;;
505;SDS011;551;48.524;9.056;2022-10-18T05:05:09;14.03;;;7.80;;
505;SDS011;551;48.524;9.056;2022-10-18T05:07:34;13.73;;;7.53;;
505;SDS011;551;48.524;9.056;2022-10-18T05:10:00;15.13;;;7.60;;
505;SDS011;551;48.524;9.056;2022-10-18T05:12:25;9.83;;;6.00;;
505;SDS011;551;48.524;9.056;2022-10-18T05:14:51;7.37;;;6.10;;
505;SDS011;551;48.524;9.056;2022-10-18T05:17:16;12.10;;;6.23;;
505;SDS011;551;48.524;9.056;2022-10-18T05:19:42;13.13;;;6.30;;
505;SDS011;551;48.524;9.056;2022-10-18T05:22:07;8.40;;;6.50;;
505;SDS011;551;48.524;9.056;2022-10-18T05:24:33;11.03;;;5.73;;
505;SDS011;551;48.524;9.056;2022-10-18T05:26:58;9.87;;;5.63;;
505;SDS011;551;48.524;9.056;2022-10-18T05:29:24;11.60;;;6.90;;
505;SDS011;551;48.524;9.056;2022-10-18T05:31:49;15.73;;;7.80;;
505;SDS011;551;48.524;9.056;2022-10-18T05:34:15;13.83;;;6.83;;
505;SDS011;551;48.524;9.056;2022-10-18T05:36:41;12.73;;;7.47;;
505;SDS011;551;48.524;9.056;2022-10-18T05:39:07;12.37;;;7.07;;
505;SDS011;551;48.524;9.056;2022-10-18T05:41:32;12.33;;;6.80;;
505;SDS011;551;48.524;9.056;2022-10-18T05:44:01;16.07;;;6.40;;
505;SDS011;551;48.524;9.056;2022-10-18T05:46:28;8.97;;;6.43;;
505;SDS011;551;48.524;9.056;2022-10-18T05:48:54;12.40;;;6.43;;
505;SDS011;551;48.524;9.056;2022-10-18T05:51:19;8.40;;;6.77;;
505;SDS011;551;48.524;9.056;2022-10-18T05:53:45;13.30;;;6.87;;
505;SDS011;551;48.524;9.056;2022-10-18T05:56:10;10.73;;;6.47;;
505;SDS011;551;48.524;9.056;2022-10-18T05:58:36;13.00;;;7.07;;
505;SDS011;551;48.524;9.056;2022-10-18T06:01:03;9.33;;;6.50;;
505;SDS011;551;48.524;9.056;2022-10-18T06:03:30;12.13;;;6.80;;
505;SDS011;551;48.524;9.056;2022-10-18T06:05:59;20.33;;;6.40;;
505;SDS011;551;48.524;9.056;2022-10-18T06:08:26;9.73;;;7.03;;
505;SDS011;551;48.524;9.056;2022-10-18T06:10:51;12.27;;;6.53;;
505;SDS011;551;48.524;9.056;2022-10-18T06:13:17;11.17;;;6.50;;
505;SDS011;551;48.524;9.056;2022-10-18T06:15:42;14.50;;;7.07;;
505;SDS011;551;48.524;9.056;2022-10-18T06:18:08;10.93;;;6.17;;
505;SDS011;551;48.524;9.056;2022-10-18T06:20:33;8.57;;;5.83;;
505;SDS011;551;48.524;9.056;2022-10-18T06:22:59;11.50;;;5.90;;
505;SDS011;551;48.524;9.056;2022-10-18T06:25:24;10.10;;;6.80;;
505;SDS011;551;48.524;9.056;2022-10-18T06:27:50;11.23;;;6.83;;
505;SDS011;551;48.524;9.056;2022-10-18T06:30:15;7.60;;;6.33;;
505;SDS011;551;48.524;9.056;2022-10-18T06:32:41;8.00;;;5.70;;
505;SDS011;551;48.524;9.056;2022-10-18T06:35:06;8.70;;;6.57;;
505;SDS011;551;48.524;9.056;2022-10-18T06:37:32;8.20;;;5.97;;
505;SDS011;551;48.524;9.056;2022-10-18T06:39:59;10.83;;;6.77;;
505;SDS011;551;48.524;9.056;2022-10-18T06:42:24;12.90;;;6.27;;
505;SDS011;551;48.524;9.056;2022-10-18T06:44:50;7.97;;;5.60;;
505;SDS011;551;48.524;9.056;2022-10-18T06:47:15;6.17;;;4.90;;
505;SDS011;551;48.524;9.056;2022-10-18T06:49:41;7.23;;;4.80;;
505;SDS011;551;48.524;9.056;2022-10-18T06:52:07;7.70;;;5.10;;
505;SDS011;551;48.524;9.056;2022-10-18T06:54:32;9.13;;;5.20;;
505;SDS011;551;48.524;9.056;2022-10-18T06:56:58;6.37;;;5.17;;
505;SDS011;551;48.524;9.056;2022-10-18T06:59:25;6.27;;;4.90;;
505;SDS011;551;48.524;9.056;2022-10-18T07:01:51;6.23;;;5.03;;
505;SDS011;551;48.524;9.056;2022-10-18T07:04:16;10.80;;;5.50;;
505;SDS011;551;48.524;9.056;2022-10-18T07:06:42;10.87;;;5.60;;
505;SDS011;551;48.524;9.056;2022-10-18T07:09:07;8.43;;;6.50;;
505;SDS011;551;48.524;9.056;2022-10-18T07:11:33;9.00;;;5.30;;
505;SDS011;551;48.524;9.056;2022-10-18T07:13:59;10.20;;;5.27;;
505;SDS011;551;48.524;9.056;2022-10-18T07:16:27;22.20;;;5.50;;
505;SDS011;551;48.524;9.056;2022-10-18T07:18:53;9.63;;;5.90;;
505;SDS011;551;48.524;9.056;2022-10-18T07:21:19;9.33;;;5.47;;
505;SDS011;551;48.524;9.056;2022-10-18T07:23:48;9.87;;;6.30;;
505;SDS011;551;48.524;9.056;2022-10-18T07:26:16;11.50;;;6.13;;
505;SDS011;551;48.524;9.056;2022-10-18T07:28:56;8.93;;;5.60;;
505;SDS011;551;48.524;9.056;2022-10-18T07:31:26;14.03;;;5.97;;
505;SDS011;551;48.524;9.056;2022-10-18T07:33:52;9.30;;;5.50;;
505;SDS011;551;48.524;9.056;2022-10-18T07:36:18;12.20;;;5.50;;
505;SDS011;551;48.524;9.056;2022-10-18T07:38:48;8.70;;;6.13;;
505;SDS011;551;48.524;9.056;2022-10-18T07:41:15;6.43;;;5.63;;
505;SDS011;551;48.524;9.056;2022-10-18T07:43:42;9.43;;;6.70;;
505;SDS011;551;48.524;9.056;2022-10-18T07:46:10;9.97;;;5.97;;
505;SDS011;551;48.524;9.056;2022-10-18T07:48:36;9.40;;;5.67;;
505;SDS011;551;48.524;9.056;2022-10-18T07:51:01;12.27;;;5.50;;
505;SDS011;551;48.524;9.056;2022-10-18T07:53:28;6.83;;;4.60;;
505;SDS011;551;48.524;9.056;2022-10-18T07:55:57;6.43;;;5.37;;
505;SDS011;551;48.524;9.056;2022-10-18T07:58:26;6.97;;;6.20;;
505;SDS011;551;48.524;9.056;2022-10-18T08:00:52;7.33;;;5.37;;
505;SDS011;551;48.524;9.056;2022-10-18T08:03:18;9.60;;;5.70;;
505;SDS011;551;48.524;9.056;2022-10-18T08:05:45;7.40;;;6.00;;
505;SDS011;551;48.524;9.056;2022-10-18T08:08:16;8.27;;;5.93;;
505;SDS011;551;48.524;9.056;2022-10-18T08:10:42;9.40;;;5.80;;
505;SDS011;551;48.524;9.056;2022-10-18T08:13:07;9.20;;;5.23;;
505;SDS011;551;48.524;9.056;2022-10-18T08:15:33;10.20;;;5.40;;
505;SDS011;551;48.524;9.056;2022-10-18T08:17:59;8.47;;;4.70;;
505;SDS011;551;48.524;9.056;2022-10-18T08:20:24;6.77;;;4.60;;
505;SDS011;551;48.524;9.056;2022-10-18T08:22:50;7.40;;;5.50;;
505;SDS011;551;48.524;9.056;2022-10-18T08:25:15;6.90;;;5.47;;
505;SDS011;551;48.524;9.056;2022-10-18T08:27:41;9.37;;;5.37;;
505;SDS011;551;48.524;9.056;2022-10-18T08:30:07;12.87;;;5.47;;
505;SDS011;551;48.524;9.056;2022-10-18T08:32:33;13.77;;;6.50;;
505;SDS011;551;48.524;9.056;2022-10-18T08:34:59;7.40;;;5.57;;
505;SDS011;551;48.524;9.056;2022-10-18T08:37:24;8.00;;;5.63;;
505;SDS011;551;48.524;9.056;2022-10-18T08:39:50;6.23;;;5.63;;
505;SDS011;551;48.524;9.056;2022-10-18T08:42:34;5.53;;;5.03;;
505;SDS011;551;48.524;9.056;2022-10-18T08:45:19;7.57;;;4.77;;
505;SDS011;551;48.524;9.056;2022-10-18T08:47:45;8.63;;;5.73;;
505;SDS011;551;48.524;9.056;2022-10-18T08:50:20;9.53;;;5.53;;
505;SDS011;551;48.524;9.056;2022-10-18T08:57:48;13.00;;;5.33;;
505;SDS011;551;48.524;9.056;2022-10-18T09:03:29;10.17;;;4.50;;
505;SDS011;551;48.524;9.056;2022-10-18T09:08:20;6.70;;;5.40;;
505;SDS011;551;48.524;9.056;2022-10-18T09:11:23;6.97;;;4.87;;
505;SDS011;551;48.524;9.056;2022-10-18T09:17:14;6.73;;;4.73;;
505;SDS011;551;48.524;9.056;2022-10-18T09:22:58;7.27;;;4.70;;
505;SDS011;551;48.524;9.056;2022-10-18T09:25:49;6.90;;;5.27;;
505;SDS011;551;48.524;9.056;2022-10-18T09:28:31;6.30;;;5.23;;
505;SDS011;551;48.524;9.056;2022-10-18T09:37:12;11.10;;;5.70;;
505;SDS011;551;48.524;9.056;2022-10-18T09:39:40;7.40;;;4.80;;
505;SDS011;551;48.524;9.056;2022-10-18T09:42:12;5.33;;;4.83;;
505;SDS011;551;48.524;9.056;2022-10-18T09:44:53;9.73;;;5.10;;
505;SDS011;551;48.524;9.056;2022-10-18T09:47:27;9.60;;;5.07;;
505;SDS011;551;48.524;9.056;2022-10-18T09:50:18;11.73;;;6.30;;
505;SDS011;551;48.524;9.056;2022-10-18T09:52:56;14.00;;;6.00;;
505;SDS011;551;48.524;9.056;2022-10-18T09:55:33;7.80;;;5.43;;
505;SDS011;551;48.524;9.056;2022-10-18T09:58:03;8.23;;;5.60;;
505;SDS011;551;48.524;9.056;2022-10-18T10:00:37;12.70;;;5.27;;
505;SDS011;551;48.524;9.056;2022-10-18T10:03:10;7.00;;;6.07;;
505;SDS011;551;48.524;9.056;2022-10-18T10:05:39;10.40;;;5.50;;
505;SDS011;551;48.524;9.056;2022-10-18T10:08:05;6.30;;;4.70;;
505;SDS011;551;48.524;9.056;2022-10-18T10:10:31;5.93;;;5.33;;
505;SDS011;551;48.524;9.056;2022-10-18T10:13:04;11.90;;;5.97;;
505;SDS011;551;48.524;9.056;2022-10-18T10:15:37;5.63;;;5.10;;
505;SDS011;551;48.524;9.056;2022-10-18T10:18:16;9.53;;;5.70;;
505;SDS011;551;48.524;9.056;2022-10-18T10:21:40;7.30;;;5.77;;
505;SDS011;551;48.524;9.056;2022-10-18T10:28:17;12.20;;;5.57;;
505;SDS011;551;48.524;9.056;2022-10-18T10:35:18;8.13;;;5.70;;
505;SDS011;551;48.524;9.056;2022-10-18T11:18:05;6.20;;;4.47;;
505;SDS011;551;48.524;9.056;2022-10-18T11:20:51;9.90;;;4.47;;
505;SDS011;551;48.524;9.056;2022-10-18T11:23:20;5.33;;;4.53;;
505;SDS011;551;48.524;9.056;2022-10-18T11:26:07;5.00;;;3.63;;
505;SDS011;551;48.524;9.056;2022-10-18T11:29:05;4.90;;;4.17;;
505;SDS011;551;48.524;9.056;2022-10-18T11:31:42;8.50;;;4.50;;
505;SDS011;551;48.524;9.056;2022-10-18T11:43:22;4.43;;;3.40;;
505;SDS011;551;48.524;9.056;2022-10-18T11:46:00;3.43;;;3.10;;
505;SDS011;551;48.524;9.056;2022-10-18T11:51:48;4.00;;;3.60;;
505;SDS011;551;48.524;9.056;2022-10-18T11:57:10;4.13;;;2.83;;
505;SDS011;551;48.524;9.056;2022-10-18T11:59:57;5.53;;;2.90;;
505;SDS011;551;48.524;9.056;2022-10-18T12:05:52;3.30;;;2.30;;
505;SDS011;551;48.524;9.056;2022-10-18T12:10:48;3.37;;;2.00;;
505;SDS011;551;48.524;9.056;2022-10-18T12:13:17;2.13;;;2.03;;
505;SDS011;551;48.524;9.056;2022-10-18T12:15:53;5.03;;;3.17;;
505;SDS011;551;48.524;9.056;2022-10-18T12:18:20;4.60;;;2.60;;
505;SDS011;551;48.524;9.056;2022-10-18T12:20:53;3.83;;;2.33;;
505;SDS011;551;48.524;9.056;2022-10-18T12:26:06;2.53;;;2.20;;
505;SDS011;551;48.524;9.056;2022-10-18T12:28:45;2.30;;;2.20;;
505;SDS011;551;48.524;9.056;2022-10-18T12:31:26;3.93;;;2.30;;
505;SDS011;551;48.524;9.056;2022-10-18T12:33:59;9.27;;;2.00;;
505;SDS011;551;48.524;9.056;2022-10-18T12:39:15;6.33;;;2.00;;
505;SDS011;551;48.524;9.056;2022-10-18T12:41:55;5.23;;;2.30;;
505;SDS011;551;48.524;9.056;2022-10-18T12:44:24;3.40;;;1.87;;
505;SDS011;551;48.524;9.056;2022-10-18T12:46:55;2.80;;;2.37;;
505;SDS011;551;48.524;9.056;2022-10-18T12:49:33;2.20;;;2.00;;
505;SDS011;551;48.524;9.056;2022-10-18T12:52:02;2.37;;;2.13;;
505;SDS011;551;48.524;9.056;2022-10-18T12:54:31;2.57;;;2.10;;
505;SDS011;551;48.524;9.056;2022-10-18T12:57:02;3.00;;;2.23;;
505;SDS011;551;48.524;9.056;2022-10-18T12:59:46;2.80;;;2.50;;
505;SDS011;551;48.524;9.056;2022-10-18T13:02:19;7.43;;;2.63;;
505;SDS011;551;48.524;9.056;2022-10-18T13:04:56;5.00;;;2.53;;
505;SDS011;551;48.524;9.056;2022-10-18T13:07:32;7.33;;;2.00;;
505;SDS011;551;48.524;9.056;2022-10-18T13:17:58;4.37;;;2.57;;
505;SDS011;551;48.524;9.056;2022-10-18T13:20:39;4.73;;;2.70;;
505;SDS011;551;48.524;9.056;2022-10-18T13:29:16;4.20;;;2.37;;
505;SDS011;551;48.524;9.056;2022-10-18T13:32:05;4.73;;;2.40;;
505;SDS011;551;48.524;9.056;2022-10-18T13:34:42;3.47;;;2.43;;
505;SDS011;551;48.524;9.056;2022-10-18T13:39:33;6.90;;;2.63;;
505;SDS011;551;48.524;9.056;2022-10-18T13:44:27;5.30;;;2.77;;
505;SDS011;551;48.524;9.056;2022-10-18T14:03:45;3.60;;;2.97;;
505;SDS011;551;48.524;9.056;2022-10-18T14:06:18;3.10;;;2.67;;
505;SDS011;551;48.524;9.056;2022-10-18T14:08:52;5.47;;;2.60;;
505;SDS011;551;48.524;9.056;2022-10-18T14:11:32;7.47;;;3.07;;
505;SDS011;551;48.524;9.056;2022-10-18T14:14:15;3.23;;;2.93;;
505;SDS011;551;48.524;9.056;2022-10-18T14:19:33;3.17;;;2.87;;
505;SDS011;551;48.524;9.056;2022-10-18T14:22:11;5.10;;;2.47;;
505;SDS011;551;48.524;9.056;2022-10-18T14:24:46;2.77;;;2.40;;
505;SDS011;551;48.524;9.056;2022-10-18T14:27:16;4.60;;;2.80;;
505;SDS011;551;48.524;9.056;2022-10-18T14:29:44;3.77;;;2.43;;
505;SDS011;551;48.524;9.056;2022-10-18T14:32:17;2.87;;;2.60;;
505;SDS011;551;48.524;9.056;2022-10-18T14:34:49;4.83;;;2.53;;
505;SDS011;551;48.524;9.056;2022-10-18T14:39:55;2.53;;;2.33;;
505;SDS011;551;48.524;9.056;2022-10-18T14:42:21;9.13;;;3.47;;
505;SDS011;551;48.524;9.056;2022-10-18T14:44:48;5.23;;;2.57;;
505;SDS011;551;48.524;9.056;2022-10-18T14:47:22;7.27;;;3.03;;
505;SDS011;551;48.524;9.056;2022-10-18T14:49:49;5.20;;;3.67;;
505;SDS011;551;48.524;9.056;2022-10-18T14:52:18;7.80;;;3.23;;
505;SDS011;551;48.524;9.056;2022-10-18T14:54:47;3.60;;;2.87;;
505;SDS011;551;48.524;9.056;2022-10-18T14:57:23;4.53;;;3.30;;
505;SDS011;551;48.524;9.056;2022-10-18T14:59:55;5.63;;;3.30;;
505;SDS011;551;48.524;9.056;2022-10-18T15:02:24;6.63;;;3.50;;
505;SDS011;551;48.524;9.056;2022-10-18T15:04:55;4.60;;;2.90;;
505;SDS011;551;48.524;9.056;2022-10-18T15:07:21;8.20;;;3.90;;
505;SDS011;551;48.524;9.056;2022-10-18T15:09:46;5.40;;;3.20;;
505;SDS011;551;48.524;9.056;2022-10-18T15:12:13;5.87;;;2.87;;
505;SDS011;551;48.524;9.056;2022-10-18T15:14:40;2.90;;;2.70;;
505;SDS011;551;48.524;9.056;2022-10-18T15:17:07;3.07;;;2.70;;
505;SDS011;551;48.524;9.056;2022-10-18T15:19:54;3.87;;;2.67;;
505;SDS011;551;48.524;9.056;2022-10-18T15:22:25;6.77;;;3.00;;
505;SDS011;551;48.524;9.056;2022-10-18T15:27:30;4.30;;;2.80;;
505;SDS011;551;48.524;9.056;2022-10-18T15:30:04;5.90;;;3.40;;
505;SDS011;551;48.524;9.056;2022-10-18T15:32:45;3.23;;;2.97;;
505;SDS011;551;48.524;9.056;2022-10-18T15:35:16;5.13;;;3.00;;
505;SDS011;551;48.524;9.056;2022-10-18T15:37:47;7.63;;;2.73;;
505;SDS011;551;48.524;9.056;2022-10-18T15:40:32;5.57;;;3.60;;
505;SDS011;551;48.524;9.056;2022-10-18T15:43:00;3.40;;;3.10;;
505;SDS011;551;48.524;9.056;2022-10-18T15:45:31;6.67;;;3.27;;
505;SDS011;551;48.524;9.056;2022-10-18T15:50:44;3.77;;;3.17;;
505;SDS011;551;48.524;9.056;2022-10-18T15:58:20;3.20;;;2.63;;
505;SDS011;551;48.524;9.056;2022-10-18T16:00:56;4.00;;;2.50;;
505;SDS011;551;48.524;9.056;2022-10-18T16:03:25;3.53;;;2.63;;
505;SDS011;551;48.524;9.056;2022-10-18T16:05:58;4.30;;;3.10;;
505;SDS011;551;48.524;9.056;2022-10-18T16:08:28;4.73;;;2.60;;
505;SDS011;551;48.524;9.056;2022-10-18T16:10:56;4.80;;;3.37;;
505;SDS011;551;48.524;9.056;2022-10-18T16:13:22;3.80;;;3.20;;
505;SDS011;551;48.524;9.056;2022-10-18T16:15:49;4.40;;;2.90;;
505;SDS011;551;48.524;9.056;2022-10-18T16:18:16;5.13;;;2.80;;
505;SDS011;551;48.524;9.056;2022-10-18T16:20:43;8.57;;;2.63;;
505;SDS011;551;48.524;9.056;2022-10-18T16:23:12;3.80;;;2.40;;
505;SDS011;551;48.524;9.056;2022-10-18T16:25:44;3.23;;;2.80;;
505;SDS011;551;48.524;9.056;2022-10-18T16:28:14;6.23;;;2.67;;
505;SDS011;551;48.524;9.056;2022-10-18T16:30:42;6.50;;;2.40;;
505;SDS011;551;48.524;9.056;2022-10-18T16:33:11;2.70;;;1.90;;
505;SDS011;551;48.524;9.056;2022-10-18T16:35:36;8.73;;;3.83;;
505;SDS011;551;48.524;9.056;2022-10-18T16:38:02;5.63;;;3.10;;
505;SDS011;551;48.524;9.056;2022-10-18T16:40:27;4.03;;;2.80;;
505;SDS011;551;48.524;9.056;2022-10-18T16:42:53;3.03;;;2.73;;
505;SDS011;551;48.524;9.056;2022-10-18T16:45:19;4.87;;;2.50;;
505;SDS011;551;48.524;9.056;2022-10-18T16:47:44;2.93;;;2.63;;
505;SDS011;551;48.524;9.056;2022-10-18T16:50:14;3.33;;;2.90;;
505;SDS011;551;48.524;9.056;2022-10-18T16:52:41;3.87;;;2.70;;
505;SDS011;551;48.524;9.056;2022-10-18T16:55:07;6.70;;;3.60;;
505;SDS011;551;48.524;9.056;2022-10-18T16:57:40;5.00;;;2.67;;
505;SDS011;551;48.524;9.056;2022-10-18T17:00:07;6.13;;;2.93;;
505;SDS011;551;48.524;9.056;2022-10-18T17:02:39;2.67;;;2.47;;
505;SDS011;551;48.524;9.056;2022-10-18T17:05:05;5.83;;;3.03;;
505;SDS011;551;48.524;9.056;2022-10-18T17:07:31;6.67;;;2.90;;
505;SDS011;551;48.524;9.056;2022-10-18T17:09:56;4.30;;;3.07;;
505;SDS011;551;48.524;9.056;2022-10-18T17:12:22;5.00;;;2.70;;
505;SDS011;551;48.524;9.056;2022-10-18T17:14:47;8.53;;;3.60;;
505;SDS011;551;48.524;9.056;2022-10-18T17:17:13;8.47;;;3.13;;
505;SDS011;551;48.524;9.056;2022-10-18T17:19:38;3.37;;;3.07;;
505;SDS011;551;48.524;9.056;2022-10-18T17:22:06;7.00;;;4.17;;
505;SDS011;551;48.524;9.056;2022-10-18T17:24:32;6.93;;;2.77;;
505;SDS011;551;48.524;9.056;2022-10-18T17:26:57;7.67;;;3.73;;
505;SDS011;551;48.524;9.056;2022-10-18T17:29:23;5.20;;;3.40;;
505;SDS011;551;48.524;9.056;2022-10-18T17:31:48;6.47;;;2.90;;
505;SDS011;551;48.524;9.056;2022-10-18T17:34:14;3.87;;;3.27;;
505;SDS011;551;48.524;9.056;2022-10-18T17:36:42;8.83;;;3.97;;
505;SDS011;551;48.524;9.056;2022-10-18T17:39:09;4.93;;;3.40;;
505;SDS011;551;48.524;9.056;2022-10-18T17:41:35;12.67;;;4.13;;
505;SDS011;551;48.524;9.056;2022-10-18T17:44:01;8.17;;;4.20;;
505;SDS011;551;48.524;9.056;2022-10-18T17:46:29;5.03;;;4.43;;
505;SDS011;551;48.524;9.056;2022-10-18T17:48:55;7.30;;;3.40;;
505;SDS011;551;48.524;9.056;2022-10-18T17:51:21;5.73;;;4.00;;
505;SDS011;551;48.524;9.056;2022-10-18T17:53:47;5.60;;;4.00;;
505;SDS011;551;48.524;9.056;2022-10-18T17:56:13;3.73;;;3.37;;
505;SDS011;551;48.524;9.056;2022-10-18T17:58:39;5.47;;;3.60;;
505;SDS011;551;48.524;9.056;2022-10-18T18:01:08;4.20;;;3.43;;
505;SDS011;551;48.524;9.056;2022-10-18T18:03:35;6.40;;;3.67;;
505;SDS011;551;48.524;9.056;2022-10-18T18:06:10;4.20;;;3.80;;
505;SDS011;551;48.524;9.056;2022-10-18T18:08:43;4.00;;;3.70;;
505;SDS011;551;48.524;9.056;2022-10-18T18:11:09;11.60;;;4.43;;
505;SDS011;551;48.524;9.056;2022-10-18T18:13:34;5.93;;;4.67;;
505;SDS011;551;48.524;9.056;2022-10-18T18:16:10;5.27;;;4.77;;
505;SDS011;551;48.524;9.056;2022-10-18T18:18:37;7.37;;;4.70;;
505;SDS011;551;48.524;9.056;2022-10-18T18:21:02;6.70;;;4.67;;
505;SDS011;551;48.524;9.056;2022-10-18T18:23:28;9.83;;;4.37;;
505;SDS011;551;48.524;9.056;2022-10-18T18:25:54;8.10;;;4.43;;
505;SDS011;551;48.524;9.056;2022-10-18T18:28:20;7.73;;;5.00;;
505;SDS011;551;48.524;9.056;2022-10-18T18:30:46;7.70;;;4.73;;
505;SDS011;551;48.524;9.056;2022-10-18T18:33:11;7.30;;;4.73;;
505;SDS011;551;48.524;9.056;2022-10-18T18:35:37;8.00;;;4.80;;
505;SDS011;551;48.524;9.056;2022-10-18T18:38:02;7.90;;;4.93;;